Time;durP1;ratioP1;P1;durP2;ratioP2;P2;SDS_P1;SDS_P2;PMS_P1;PMS_P2;Temp;Humidity;BMP_temperature;BMP_pressure;BME280_temperature;BME280_humidity;BME280_pressure;Samples;Min_cycle;Max_cycle;Signal;HPM_P1;HPM_P2
2023/02/25 00:01:14;;;;;;;1999.90;999.90;;;5.40;99.90;;;;;;5029920;28;20819;-68
2023/02/25 00:03:42;;;;;;;1999.90;999.90;;;5.40;99.90;;;;;;5028087;28;20845;-68
2023/02/25 00:06:12;;;;;;;1999.90;999.90;;;5.40;99.90;;;;;;5029004;28;20453;-67
2023/02/25 00:08:40;;;;;;;1999.90;999.90;;;5.30;99.90;;;;;;5029595;28;20472;-69
2023/02/25 00:11:07;;;;;;;1999.90;999.90;;;5.30;99.90;;;;;;5029730;28;20444;-67
2023/02/25 00:13:34;;;;;;;1999.90;999.90;;;5.30;99.90;;;;;;5028415;28;20485;-67
2023/02/25 00:16:03;;;;;;;1999.90;999.90;;;5.30;99.90;;;;;;5029710;28;20459;-67
2023/02/25 00:18:31;;;;;;;1999.90;999.90;;;5.30;99.90;;;;;;5029100;28;20484;-67
2023/02/25 00:20:59;;;;;;;1999.90;999.90;;;5.40;99.90;;;;;;5029972;28;20460;-68
2023/02/25 00:23:26;;;;;;;1999.90;999.90;;;5.40;99.90;;;;;;5028068;28;20835;-68
2023/02/25 00:25:59;;;;;;;1999.90;999.90;;;5.40;99.90;;;;;;5029791;28;20456;-67
2023/02/25 00:28:26;;;;;;;1999.90;999.90;;;5.30;99.90;;;;;;5028811;28;20449;-68
2023/02/25 00:30:52;;;;;;;1999.90;999.90;;;5.30;99.90;;;;;;5029450;28;20455;-68
2023/02/25 00:33:19;;;;;;;1999.90;999.90;;;5.30;99.90;;;;;;5028144;28;21225;-67
2023/02/25 00:35:48;;;;;;;1999.90;999.90;;;5.30;99.90;;;;;;5029664;28;20467;-68
2023/02/25 00:38:15;;;;;;;1999.90;999.90;;;5.30;99.90;;;;;;5032591;28;20970;-67
2023/02/25 00:40:42;;;;;;;1999.90;999.90;;;5.30;99.90;;;;;;5029270;28;20476;-70
2023/02/25 00:43:09;;;;;;;1999.90;999.90;;;5.30;99.90;;;;;;5028548;28;20852;-68
2023/02/25 00:45:38;;;;;;;1999.90;999.90;;;5.30;99.90;;;;;;5028694;28;20999;-70
2023/02/25 00:48:04;;;;;;;1999.90;999.90;;;5.40;99.90;;;;;;5029232;28;20448;-67
2023/02/25 00:50:31;;;;;;;1999.90;999.90;;;5.40;99.90;;;;;;5028691;28;20448;-68
2023/02/25 00:52:59;;;;;;;1999.90;999.90;;;5.40;99.90;;;;;;5027742;28;20913;-69
2023/02/25 00:55:32;;;;;;;1999.90;999.90;;;5.40;99.90;;;;;;5028795;28;20449;-70
2023/02/25 00:57:59;;;;;;;1999.90;999.90;;;5.50;99.90;;;;;;5028315;28;20504;-69
2023/02/25 01:00:27;;;;;;;1999.90;999.90;;;5.50;99.90;;;;;;5026075;28;20468;-69
2023/02/25 01:02:56;;;;;;;1999.90;999.90;;;5.50;99.90;;;;;;5028238;28;20548;-67
2023/02/25 01:05:23;;;;;;;1999.90;999.90;;;5.50;99.90;;;;;;5029094;28;20449;-67
2023/02/25 01:07:50;;;;;;;1999.90;999.90;;;5.50;99.90;;;;;;5029446;28;20460;-67
2023/02/25 01:10:19;;;;;;;1999.90;999.90;;;5.50;99.90;;;;;;5028426;28;20457;-67
2023/02/25 01:12:45;;;;;;;1999.90;999.90;;;5.50;99.90;;;;;;5028444;28;20983;-68
2023/02/25 01:15:13;;;;;;;1999.90;999.90;;;5.50;99.90;;;;;;5029420;28;20828;-67
2023/02/25 01:17:40;;;;;;;1999.90;999.90;;;5.40;99.90;;;;;;5029149;28;20508;-67
2023/02/25 01:20:11;;;;;;;1999.90;999.90;;;5.40;99.90;;;;;;5029062;28;20453;-67
2023/02/25 01:22:40;;;;;;;1999.90;999.90;;;5.40;99.90;;;;;;5027977;28;20481;-70
2023/02/25 01:25:10;;;;;;;1999.90;999.90;;;5.40;99.90;;;;;;5028894;28;20523;-69
2023/02/25 01:27:38;;;;;;;1999.90;999.90;;;5.30;99.90;;;;;;5029015;28;20452;-67
2023/02/25 01:30:07;;;;;;;1999.90;999.90;;;5.30;99.90;;;;;;5028084;28;20441;-68
2023/02/25 01:32:34;;;;;;;1999.90;999.90;;;5.20;99.90;;;;;;5028434;28;20539;-66
2023/02/25 01:35:01;;;;;;;1999.90;999.90;;;5.30;99.90;;;;;;5029104;28;20460;-68
2023/02/25 01:37:27;;;;;;;1999.90;999.90;;;5.30;99.90;;;;;;5029396;28;20994;-68
2023/02/25 01:39:54;;;;;;;1999.90;999.90;;;5.30;99.90;;;;;;5030312;28;20471;-69
2023/02/25 01:42:22;;;;;;;1999.90;999.90;;;5.30;99.90;;;;;;5029568;28;20480;-68
2023/02/25 01:45:27;;;;;;;1999.90;999.90;;;5.40;99.90;;;;;;5030179;28;20456;-68
2023/02/25 01:48:02;;;;;;;1999.90;999.90;;;5.40;99.90;;;;;;5030148;28;20445;-68
2023/02/25 01:50:39;;;;;;;1999.90;999.90;;;5.40;99.90;;;;;;5030429;28;20480;-67
2023/02/25 01:53:07;;;;;;;1999.90;999.90;;;5.50;99.90;;;;;;5029152;28;20460;-69
2023/02/25 01:55:34;;;;;;;1999.90;999.90;;;5.50;99.90;;;;;;5029996;28;20963;-67
2023/02/25 01:58:02;;;;;;;1999.90;999.90;;;5.50;99.90;;;;;;5029848;28;20481;-69
2023/02/25 02:00:32;;;;;;;1999.90;999.90;;;5.40;99.90;;;;;;5030166;28;20437;-67
2023/02/25 02:03:00;;;;;;;1999.90;999.90;;;5.50;99.90;;;;;;5028845;28;20963;-69
2023/02/25 02:05:42;;;;;;;1999.90;999.90;;;5.50;99.90;;;;;;5030357;28;20452;-69
2023/02/25 02:08:10;;;;;;;1999.90;999.90;;;5.50;99.90;;;;;;5030017;28;20456;-68
2023/02/25 02:10:37;;;;;;;1999.90;999.90;;;5.50;99.90;;;;;;5030022;28;20459;-67
2023/02/25 02:13:04;;;;;;;1999.90;999.90;;;5.60;99.90;;;;;;5028932;28;20471;-67
2023/02/25 02:15:38;;;;;;;1999.90;999.90;;;5.50;99.90;;;;;;5030075;28;20455;-69
2023/02/25 02:18:06;;;;;;;1999.90;999.90;;;5.50;99.90;;;;;;5030063;28;20997;-68
2023/02/25 02:20:43;;;;;;;1999.90;999.90;;;5.50;99.90;;;;;;5031649;28;20452;-67
2023/02/25 02:23:44;;;;;;;1999.90;999.90;;;5.40;99.90;;;;;;5033008;28;20471;-67
2023/02/25 02:26:45;;;;;;;1999.90;999.90;;;5.50;99.90;;;;;;5034117;28;20954;-68
2023/02/25 02:29:32;;;;;;;1999.90;999.90;;;5.50;99.90;;;;;;5034109;28;20440;-67
2023/02/25 02:32:08;;;;;;;1999.90;999.90;;;5.50;99.90;;;;;;5033652;28;20444;-66
2023/02/25 02:34:41;;;;;;;1999.90;999.90;;;5.50;99.90;;;;;;5033870;28;20506;-68
2023/02/25 02:37:24;;;;;;;1999.90;999.90;;;5.50;99.90;;;;;;5034171;28;20491;-68
2023/02/25 02:40:00;;;;;;;1999.90;999.90;;;5.50;99.90;;;;;;5034091;28;20502;-71
2023/02/25 02:42:40;;;;;;;1999.90;999.90;;;5.50;99.90;;;;;;5032878;28;20463;-70
2023/02/25 02:45:13;;;;;;;1999.90;999.90;;;5.50;99.90;;;;;;5034165;28;20448;-68
2023/02/25 02:47:45;;;;;;;1999.90;999.90;;;5.50;99.90;;;;;;5033656;28;20449;-69
2023/02/25 02:50:18;;;;;;;1999.90;999.90;;;5.50;99.90;;;;;;5033560;28;20869;-68
2023/02/25 02:52:50;;;;;;;1999.90;999.90;;;5.50;99.90;;;;;;5032000;28;20472;-66
2023/02/25 02:55:22;;;;;;;1999.90;999.90;;;5.40;99.90;;;;;;5033677;28;20445;-68
2023/02/25 02:57:53;;;;;;;1999.90;999.90;;;5.40;99.90;;;;;;5033363;28;20859;-68
2023/02/25 03:00:25;;;;;;;1999.90;999.90;;;5.40;99.90;;;;;;5033696;28;20456;-70
2023/02/25 03:02:58;;;;;;;1999.90;999.90;;;5.50;99.90;;;;;;5031610;28;20480;-72
2023/02/25 03:05:27;;;;;;;1999.90;999.90;;;5.60;99.90;;;;;;5033498;28;20461;-67
2023/02/25 03:08:01;;;;;;;1999.90;999.90;;;5.50;99.90;;;;;;5033450;28;20955;-69
2023/02/25 03:10:28;;;;;;;1999.90;999.90;;;5.50;99.90;;;;;;5033210;28;20455;-67
2023/02/25 03:12:55;;;;;;;1999.90;999.90;;;5.50;99.90;;;;;;5032110;28;20465;-67
2023/02/25 03:15:23;;;;;;;1999.90;999.90;;;5.40;99.90;;;;;;5032826;28;20449;-69
2023/02/25 03:17:55;;;;;;;1999.90;999.90;;;5.40;99.90;;;;;;5033004;28;20476;-68
2023/02/25 03:20:25;;;;;;;1999.90;999.90;;;5.50;99.90;;;;;;5032931;28;20448;-67
2023/02/25 03:22:56;;;;;;;1999.90;999.90;;;5.40;99.90;;;;;;5032139;28;20477;-68
2023/02/25 03:25:27;;;;;;;1999.90;999.90;;;5.50;99.90;;;;;;5032898;28;20449;-68
2023/02/25 03:27:56;;;;;;;1999.90;999.90;;;5.50;99.90;;;;;;5033472;28;20437;-69
2023/02/25 03:30:28;;;;;;;1999.90;999.90;;;5.50;99.90;;;;;;5034396;28;20535;-68
2023/02/25 03:33:01;;;;;;;1999.90;999.90;;;5.50;99.90;;;;;;5032993;28;20460;-69
2023/02/25 03:35:29;;;;;;;1999.90;999.90;;;5.40;99.90;;;;;;5035247;28;20456;-70
2023/02/25 03:38:01;;;;;;;1999.90;999.90;;;5.40;99.90;;;;;;5034416;28;20480;-71
2023/02/25 03:40:29;;;;;;;1999.90;999.90;;;5.40;99.90;;;;;;5033993;28;20456;-69
2023/02/25 03:43:01;;;;;;;1999.90;999.90;;;5.20;99.90;;;;;;5032124;28;20469;-69
2023/02/25 03:45:29;;;;;;;1999.90;999.90;;;5.20;99.90;;;;;;5032722;28;20464;-68
2023/02/25 03:47:58;;;;;;;1999.90;999.90;;;5.20;99.90;;;;;;5032724;28;20827;-69
2023/02/25 03:50:30;;;;;;;1999.90;999.90;;;5.20;99.90;;;;;;5032872;28;20493;-69
2023/02/25 03:52:57;;;;;;;1999.90;999.90;;;5.20;99.90;;;;;;5031115;28;20469;-70
2023/02/25 03:55:24;;;;;;;1999.90;999.90;;;5.10;99.90;;;;;;5032521;28;20543;-68
2023/02/25 03:57:51;;;;;;;1999.90;999.90;;;5.00;99.90;;;;;;5032381;28;20481;-69
2023/02/25 04:00:24;;;;;;;1999.90;999.90;;;4.90;99.90;;;;;;5032384;28;20453;-67
2023/02/25 04:02:51;;;;;;;1999.90;999.90;;;4.70;99.90;;;;;;5031203;28;20472;-69
2023/02/25 04:05:21;;;;;;;1999.90;999.90;;;4.60;99.90;;;;;;5032223;28;20448;-67
2023/02/25 04:07:48;;;;;;;1999.90;999.90;;;4.50;99.90;;;;;;5032211;28;20451;-68
2023/02/25 04:10:16;;;;;;;1999.90;999.90;;;4.40;99.90;;;;;;5031994;28;20449;-67
2023/02/25 04:12:43;;;;;;;1999.90;999.90;;;4.40;99.90;;;;;;5030858;28;20548;-68
2023/02/25 04:15:12;;;;;;;1999.90;999.90;;;4.50;99.90;;;;;;5031938;28;20837;-67
2023/02/25 04:17:39;;;;;;;1999.90;999.90;;;4.50;99.90;;;;;;5032232;28;20472;-71
2023/02/25 04:20:07;;;;;;;1999.90;999.90;;;4.60;99.90;;;;;;5031789;28;20445;-68
2023/02/25 04:22:35;;;;;;;1999.90;999.90;;;4.50;99.90;;;;;;5031164;28;20822;-69
2023/02/25 04:25:02;;;;;;;1999.90;999.90;;;4.40;99.90;;;;;;5031819;28;20445;-68
2023/02/25 04:27:30;;;;;;;1999.90;999.90;;;4.40;99.90;;;;;;5032120;28;20452;-69
2023/02/25 04:29:57;;;;;;;1999.90;999.90;;;4.40;99.90;;;;;;5032063;28;20955;-66
2023/02/25 04:32:25;;;;;;;1999.90;999.90;;;4.40;99.90;;;;;;5030634;28;20485;-66
2023/02/25 04:34:52;;;;;;;1999.90;999.90;;;4.40;99.90;;;;;;5031679;28;21200;-68
2023/02/25 04:37:18;;;;;;;1999.90;999.90;;;4.50;99.90;;;;;;5032060;28;20965;-68
2023/02/25 04:39:47;;;;;;;1999.90;999.90;;;4.50;99.90;;;;;;5032284;28;20456;-67
2023/02/25 04:42:13;;;;;;;1999.90;999.90;;;4.60;99.90;;;;;;5031291;28;20469;-68
2023/02/25 04:44:40;;;;;;;1999.90;999.90;;;4.60;99.90;;;;;;5031291;28;20452;-72
2023/02/25 04:47:07;;;;;;;1999.90;999.90;;;4.60;99.90;;;;;;5031340;28;20535;-67
2023/02/25 04:49:43;;;;;;;1999.90;999.90;;;4.60;99.90;;;;;;5031456;28;20528;-68
2023/02/25 04:52:11;;;;;;;1999.90;999.90;;;4.60;99.90;;;;;;5030594;28;20520;-67
2023/02/25 04:54:38;;;;;;;1999.90;999.90;;;4.50;99.90;;;;;;5030300;28;20441;-66
2023/02/25 04:57:06;;;;;;;1999.90;999.90;;;4.50;99.90;;;;;;5031217;28;20831;-69
2023/02/25 04:59:33;;;;;;;1999.90;999.90;;;4.50;99.90;;;;;;5030965;28;20477;-69
2023/02/25 05:01:59;;;;;;;1999.90;999.90;;;4.50;99.90;;;;;;5030807;28;20445;-67
2023/02/25 05:04:26;;;;;;;1999.90;999.90;;;4.50;99.90;;;;;;5029960;28;20448;-67
2023/02/25 05:06:53;;;;;;;1999.90;999.90;;;4.60;99.90;;;;;;5031133;28;20441;-68
2023/02/25 05:09:20;;;;;;;1999.90;999.90;;;4.60;99.90;;;;;;5030851;28;20447;-67
2023/02/25 05:11:47;;;;;;;1999.90;999.90;;;4.70;99.90;;;;;;5030824;28;20453;-67
2023/02/25 05:14:15;;;;;;;1999.90;999.90;;;4.60;99.90;;;;;;5029311;28;20951;-67
2023/02/25 05:16:42;;;;;;;1999.90;999.90;;;4.70;99.90;;;;;;5030966;28;20560;-68
2023/02/25 05:19:09;;;;;;;1999.90;999.90;;;4.70;99.90;;;;;;5030554;28;20480;-67
2023/02/25 05:21:36;;;;;;;1999.90;999.90;;;4.70;99.90;;;;;;5030829;28;20524;-67
2023/02/25 05:24:03;;;;;;;1999.90;999.90;;;4.70;99.90;;;;;;5029480;28;20479;-68
2023/02/25 05:26:30;;;;;;;1999.90;999.90;;;4.70;99.90;;;;;;5030460;28;20532;-68
2023/02/25 05:28:57;;;;;;;1999.90;999.90;;;4.70;99.90;;;;;;5030338;28;20456;-67
2023/02/25 05:31:26;;;;;;;1999.90;999.90;;;4.80;99.90;;;;;;5030439;28;20449;-68
2023/02/25 05:33:53;;;;;;;1999.90;999.90;;;4.70;99.90;;;;;;5029187;28;20480;-67
2023/02/25 05:36:20;;;;;;;1999.90;999.90;;;4.80;99.90;;;;;;5030389;28;20452;-67
2023/02/25 05:38:47;;;;;;;1999.90;999.90;;;4.80;99.90;;;;;;5030354;28;20491;-68
2023/02/25 05:41:15;;;;;;;1999.90;999.90;;;4.80;99.90;;;;;;5030234;28;20476;-67
2023/02/25 05:43:44;;;;;;;1999.90;999.90;;;4.90;99.90;;;;;;5029206;28;20479;-69
2023/02/25 05:46:12;;;;;;;1999.90;999.90;;;4.90;99.90;;;;;;5030463;28;21086;-69
2023/02/25 05:48:45;;;;;;;1999.90;999.90;;;4.90;99.90;;;;;;5029916;28;20437;-69
2023/02/25 05:51:14;;;;;;;1999.90;999.90;;;4.80;99.90;;;;;;5030071;28;20457;-69
2023/02/25 05:53:43;;;;;;;1999.90;999.90;;;4.90;99.90;;;;;;5028521;28;20551;-68
2023/02/25 05:56:13;;;;;;;1999.90;999.90;;;4.90;99.90;;;;;;5030418;28;20476;-67
2023/02/25 05:58:40;;;;;;;1999.90;999.90;;;4.80;99.90;;;;;;5029911;28;20520;-68
2023/02/25 06:01:10;;;;;;;1999.90;999.90;;;4.80;99.90;;;;;;5030169;28;20460;-67
2023/02/25 06:03:37;;;;;;;1999.90;999.90;;;4.90;99.90;;;;;;5028517;28;20979;-68
2023/02/25 06:06:06;;;;;;;1999.90;999.90;;;4.90;99.90;;;;;;5030035;28;20460;-65
2023/02/25 06:08:33;;;;;;;1999.90;999.90;;;4.90;99.90;;;;;;5029665;28;20440;-68
2023/02/25 06:11:00;;;;;;;1999.90;999.90;;;4.90;99.90;;;;;;5030054;28;20471;-69
2023/02/25 06:13:27;;;;;;;1999.90;999.90;;;4.90;99.90;;;;;;5028546;28;20472;-66
2023/02/25 06:15:54;;;;;;;1999.90;999.90;;;4.80;99.90;;;;;;5029900;28;20456;-69
2023/02/25 06:18:21;;;;;;;1999.90;999.90;;;4.80;99.90;;;;;;5029880;28;20598;-69
2023/02/25 06:20:48;;;;;;;1999.90;999.90;;;4.90;99.90;;;;;;5029515;28;20811;-68
2023/02/25 06:23:16;;;;;;;1999.90;999.90;;;4.90;99.90;;;;;;5028782;28;20836;-70
2023/02/25 06:25:43;;;;;;;1999.90;999.90;;;4.80;99.90;;;;;;5029618;28;20967;-71
2023/02/25 06:28:09;;;;;;;1999.90;999.90;;;4.90;99.90;;;;;;5030151;28;20471;-68
2023/02/25 06:30:36;;;;;;;1999.90;999.90;;;4.90;99.90;;;;;;5029891;28;20448;-69
2023/02/25 06:33:03;;;;;;;1999.90;999.90;;;4.90;99.90;;;;;;5028882;28;20476;-70
2023/02/25 06:35:30;;;;;;;1999.90;999.90;;;4.90;99.90;;;;;;5029776;28;20456;-68
2023/02/25 06:37:58;;;;;;;1999.90;999.90;;;4.90;99.90;;;;;;5029941;28;20449;-67
2023/02/25 06:40:27;;;;;;;1999.90;999.90;;;5.00;99.90;;;;;;5030007;28;20448;-67
2023/02/25 06:42:53;;;;;;;1999.90;999.90;;;4.90;99.90;;;;;;5028459;28;20495;-70
2023/02/25 06:45:22;;;;;;;1999.90;999.90;;;5.00;99.90;;;;;;5029831;28;20445;-68
2023/02/25 06:47:49;;;;;;;1999.90;999.90;;;4.90;99.90;;;;;;5029542;28;20453;-67
2023/02/25 06:50:16;;;;;;;1999.90;999.90;;;5.00;99.90;;;;;;5029643;28;20484;-69
2023/02/25 06:52:43;;;;;;;1999.90;999.90;;;5.00;99.90;;;;;;5028507;28;20468;-67
2023/02/25 06:55:10;;;;;;;1999.90;999.90;;;5.00;99.90;;;;;;5029760;28;20456;-69
2023/02/25 06:57:38;;;;;;;1999.90;999.90;;;5.00;99.90;;;;;;5029377;28;20836;-67
2023/02/25 07:00:07;;;;;;;1999.90;999.90;;;5.10;99.90;;;;;;5029539;28;20847;-68
2023/02/25 07:02:33;;;;;;;1999.90;999.90;;;5.10;99.90;;;;;;5027978;28;20685;-69
2023/02/25 07:05:01;;;;;;;1999.90;999.90;;;5.10;99.90;;;;;;5029633;28;20444;-67
2023/02/25 07:07:29;;;;;;;1999.90;999.90;;;5.10;99.90;;;;;;5032398;28;20505;-68
2023/02/25 07:09:55;;;;;;;1999.90;999.90;;;5.20;99.90;;;;;;5032926;28;20448;-67
2023/02/25 07:12:22;;;;;;;1999.90;999.90;;;5.20;99.90;;;;;;5032351;28;20472;-68
2023/02/25 07:14:50;;;;;;;1999.90;999.90;;;5.20;99.90;;;;;;5032630;28;20974;-68
2023/02/25 07:17:17;;;;;;;1999.90;999.90;;;5.30;99.90;;;;;;5032819;28;20827;-68
2023/02/25 07:19:44;;;;;;;1999.90;999.90;;;5.30;99.90;;;;;;5032864;28;20493;-65
2023/02/25 07:22:14;;;;;;;1999.90;999.90;;;5.30;99.90;;;;;;5032621;28;20476;-68
2023/02/25 07:24:41;;;;;;;1999.90;999.90;;;5.30;99.90;;;;;;5032271;28;20445;-68
2023/02/25 07:27:08;;;;;;;1999.90;999.90;;;5.40;99.90;;;;;;5032934;28;20532;-67
2023/02/25 07:29:35;;;;;;;1999.90;999.90;;;5.30;99.90;;;;;;5032798;28;20445;-68
2023/02/25 07:32:03;;;;;;;1999.90;999.90;;;5.40;99.90;;;;;;5032536;28;20962;-67
2023/02/25 07:34:30;;;;;;;1999.90;999.90;;;5.40;99.90;;;;;;5032158;28;20452;-67
2023/02/25 07:36:57;;;;;;;1999.90;999.90;;;5.40;99.90;;;;;;5032785;28;20453;-68
2023/02/25 07:39:24;;;;;;;1999.90;999.90;;;5.30;99.90;;;;;;5032906;28;20486;-68
2023/02/25 07:41:50;;;;;;;1999.90;999.90;;;5.40;99.90;;;;;;5032817;28;20456;-67
2023/02/25 07:44:17;;;;;;;1999.90;999.90;;;5.30;99.90;;;;;;5031977;28;20453;-68
2023/02/25 07:46:44;;;;;;;1999.90;999.90;;;5.30;99.90;;;;;;5033266;28;20448;-67
2023/02/25 07:49:12;;;;;;;1999.90;999.90;;;5.30;99.90;;;;;;5033159;28;20445;-68
2023/02/25 07:51:39;;;;;;;1999.90;999.90;;;5.30;99.90;;;;;;5032360;28;20536;-67
2023/02/25 07:54:06;;;;;;;1999.90;999.90;;;5.30;99.90;;;;;;5031558;28;20460;-67
2023/02/25 07:56:32;;;;;;;1999.90;999.90;;;5.30;99.90;;;;;;5033985;28;20449;-67
2023/02/25 07:59:00;;;;;;;1999.90;999.90;;;5.40;99.90;;;;;;5036733;28;20472;-68
2023/02/25 08:01:29;;;;;;;1999.90;999.90;;;5.40;99.90;;;;;;5032657;28;20977;-67
2023/02/25 08:03:58;;;;;;;1999.90;999.90;;;5.50;99.90;;;;;;5031033;28;20468;-68
2023/02/25 08:06:27;;;;;;;1999.90;999.90;;;5.60;99.90;;;;;;5032188;28;20457;-66
2023/02/25 08:08:54;;;;;;;1999.90;999.90;;;5.70;99.90;;;;;;5032046;28;20449;-69
2023/02/25 08:11:22;;;;;;;1999.90;999.90;;;5.80;99.90;;;;;;5031823;28;20522;-67
2023/02/25 08:13:49;;;;;;;1999.90;999.90;;;5.90;99.90;;;;;;5031086;28;20839;-68
2023/02/25 08:16:17;;;;;;;1999.90;999.90;;;5.90;99.90;;;;;;5033035;28;20986;-69
2023/02/25 08:18:45;;;;;;;1999.90;999.90;;;5.90;99.90;;;;;;5031967;28;20495;-68
2023/02/25 08:21:16;;;;;;;1999.90;999.90;;;5.90;99.90;;;;;;5032445;28;20460;-68
2023/02/25 08:23:45;;;;;;;1999.90;999.90;;;6.00;99.90;;;;;;5031342;28;20469;-67
2023/02/25 08:26:12;;;;;;;1999.90;999.90;;;6.00;99.90;;;;;;5031949;28;20452;-69
2023/02/25 08:28:39;;;;;;;1999.90;999.90;;;6.00;99.90;;;;;;5031853;28;20461;-68
2023/02/25 08:31:10;;;;;;;1999.90;999.90;;;6.00;99.90;;;;;;5032134;28;20813;-66
2023/02/25 08:33:36;;;;;;;1999.90;999.90;;;6.10;99.90;;;;;;5030847;28;20473;-70
2023/02/25 08:36:08;;;;;;;1999.90;999.90;;;6.20;99.90;;;;;;5031774;28;20452;-67
2023/02/25 08:38:37;;;;;;;1999.90;999.90;;;6.30;99.90;;;;;;5031452;28;20448;-68
2023/02/25 08:41:06;;;;;;;1999.90;999.90;;;6.30;99.90;;;;;;5031525;28;20487;-67
2023/02/25 08:43:33;;;;;;;1999.90;999.90;;;6.30;99.90;;;;;;5030374;28;20496;-70
2023/02/25 08:46:00;;;;;;;1999.90;999.90;;;6.40;99.90;;;;;;5031196;28;20449;-67
2023/02/25 08:48:27;;;;;;;1999.90;999.90;;;6.50;99.90;;;;;;5031405;28;20540;-72
2023/02/25 08:50:54;;;;;;;1999.90;999.90;;;6.60;99.90;;;;;;5031265;28;20536;-69
2023/02/25 08:53:21;;;;;;;1999.90;999.90;;;6.70;99.90;;;;;;5029967;28;20555;-69
2023/02/25 08:55:48;;;;;;;1999.90;999.90;;;6.60;99.90;;;;;;5031324;28;20449;-67
2023/02/25 08:58:16;;;;;;;1999.90;999.90;;;6.50;99.90;;;;;;5030948;28;20487;-69
2023/02/25 09:00:43;;;;;;;1999.90;999.90;;;6.50;99.90;;;;;;5030950;28;20476;-67
2023/02/25 09:03:10;;;;;;;1999.90;999.90;;;6.50;99.90;;;;;;5029821;28;20479;-70
2023/02/25 09:05:37;;;;;;;1999.90;999.90;;;6.60;99.90;;;;;;5031150;28;20959;-69
2023/02/25 09:08:04;;;;;;;1999.90;999.90;;;6.50;99.90;;;;;;5030662;28;20499;-69
2023/02/25 09:10:33;;;;;;;1999.90;999.90;;;6.50;99.90;;;;;;5030881;28;20985;-69
2023/02/25 09:12:59;;;;;;;1999.90;999.90;;;6.70;99.90;;;;;;5029500;28;20473;-69
2023/02/25 09:15:30;;;;;;;1999.90;999.90;;;6.70;99.90;;;;;;5030727;28;20453;-68
2023/02/25 09:17:56;;;;;;;1999.90;999.90;;;6.70;99.90;;;;;;5031424;28;20975;-68
2023/02/25 09:20:24;;;;;;;1999.90;999.90;;;6.90;99.90;;;;;;5031254;28;20480;-68
2023/02/25 09:22:53;;;;;;;1999.90;999.90;;;7.00;99.90;;;;;;5029387;28;20518;-68
2023/02/25 09:25:20;;;;;;;1999.90;999.90;;;7.10;99.90;;;;;;5026382;28;20547;-70
2023/02/25 09:27:47;;;;;;;1999.90;999.90;;;7.30;99.90;;;;;;5031539;28;20456;-70
2023/02/25 09:30:15;;;;;;;1999.90;999.90;;;7.30;99.90;;;;;;5029407;28;20476;-68
2023/02/25 09:32:44;;;;;;;1999.90;999.90;;;7.20;99.90;;;;;;5027206;28;20954;-69
2023/02/25 09:35:11;;;;;;;1999.90;999.90;;;7.10;99.90;;;;;;5030012;28;20457;-67
2023/02/25 09:37:38;;;;;;;1999.90;999.90;;;7.00;99.90;;;;;;5030784;28;20449;-69
2023/02/25 09:40:08;;;;;;;1999.90;999.90;;;7.00;99.90;;;;;;5030500;28;20480;-67
2023/02/25 09:42:46;;;;;;;1999.90;999.90;;;7.20;99.90;;;;;;5031057;28;20884;-68
2023/02/25 09:45:17;;;;;;;1999.90;999.90;;;7.50;99.90;;;;;;5029628;28;20445;-70
2023/02/25 09:47:49;;;;;;;1999.90;999.90;;;7.80;99.90;;;;;;5031449;28;20437;-69
2023/02/25 09:50:20;;;;;;;1999.90;999.90;;;7.80;99.90;;;;;;5029818;28;20441;-69
2023/02/25 09:52:55;;;;;;;1999.90;999.90;;;7.60;99.90;;;;;;5028434;28;20556;-69
2023/02/25 09:55:28;;;;;;;1999.90;999.90;;;7.60;99.90;;;;;;5028683;28;20449;-71
2023/02/25 09:58:03;;;;;;;1999.90;999.90;;;7.50;99.90;;;;;;5025398;28;20441;-68
2023/02/25 10:00:32;;;;;;;1999.90;999.90;;;7.40;99.90;;;;;;5026504;28;20480;-68
2023/02/25 10:03:06;;;;;;;1999.90;999.90;;;7.40;99.90;;;;;;5034581;28;20567;-70
2023/02/25 10:05:44;;;;;;;1999.90;999.90;;;7.30;99.90;;;;;;5029067;28;20455;-69
2023/02/25 10:08:19;;;;;;;1999.90;999.90;;;7.10;99.90;;;;;;5028740;28;20799;-69
2023/02/25 10:10:57;;;;;;;1999.90;999.90;;;7.20;99.90;;;;;;5039414;28;20444;-68
2023/02/25 10:13:31;;;;;;;1999.90;999.90;;;7.20;99.90;;;;;;5033312;28;20461;-69
2023/02/25 10:16:07;;;;;;;1999.90;999.90;;;7.30;99.90;;;;;;5043202;28;20441;-68
2023/02/25 10:18:51;;;;;;;1999.90;999.90;;;7.30;99.90;;;;;;5030151;28;20467;-68
2023/02/25 10:21:29;;;;;;;1999.90;999.90;;;7.30;99.90;;;;;;5031472;28;20858;-69
2023/02/25 10:24:13;;;;;;;1999.90;999.90;;;7.20;99.90;;;;;;5031923;28;20465;-69
2023/02/25 10:26:47;;;;;;;1999.90;999.90;;;7.00;99.90;;;;;;5046225;28;20444;-70
2023/02/25 10:29:23;;;;;;;1999.90;999.90;;;7.10;99.90;;;;;;5036256;28;20556;-68
2023/02/25 10:31:52;;;;;;;1999.90;999.90;;;7.20;99.90;;;;;;5031179;28;20532;-76
2023/02/25 10:34:24;;;;;;;1999.90;999.90;;;7.30;99.90;;;;;;5031997;28;20503;-71
2023/02/25 10:36:54;;;;;;;1999.90;999.90;;;7.30;99.90;;;;;;5029816;28;20968;-69
2023/02/25 10:39:23;;;;;;;1999.90;999.90;;;7.40;99.90;;;;;;5029557;28;20453;-68
2023/02/25 10:41:50;;;;;;;1999.90;999.90;;;7.40;99.90;;;;;;5032437;28;20517;-71
2023/02/25 10:44:17;;;;;;;1999.90;999.90;;;7.40;99.90;;;;;;5029600;28;20452;-70
2023/02/25 10:46:50;;;;;;;1999.90;999.90;;;7.40;99.90;;;;;;5029730;28;20440;-80
2023/02/25 10:49:21;;;;;;;1999.90;999.90;;;7.30;99.90;;;;;;5021077;28;20484;-71
2023/02/25 10:52:01;;;;;;;1999.90;999.90;;;7.20;99.90;;;;;;5030794;28;20461;-67
2023/02/25 10:54:29;;;;;;;1999.90;999.90;;;7.20;99.90;;;;;;5028331;28;20814;-70
2023/02/25 10:56:59;;;;;;;1999.90;999.90;;;7.20;99.90;;;;;;5028201;28;20445;-68
2023/02/25 10:59:29;;;;;;;1999.90;999.90;;;7.10;99.90;;;;;;5028421;28;20449;-68
2023/02/25 11:01:56;;;;;;;1999.90;999.90;;;7.00;99.90;;;;;;5029342;28;20548;-68
2023/02/25 11:04:27;;;;;;;1999.90;999.90;;;6.90;99.90;;;;;;5028980;28;20441;-70
2023/02/25 11:06:54;;;;;;;1999.90;999.90;;;7.10;99.90;;;;;;5027352;28;20440;-68
2023/02/25 11:09:35;;;;;;;1999.90;999.90;;;7.30;99.90;;;;;;5028697;28;20449;-68
2023/02/25 11:12:16;;;;;;;1999.90;999.90;;;7.60;99.90;;;;;;5027878;28;21022;-69
2023/02/25 11:14:43;;;;;;;1999.90;999.90;;;7.80;99.90;;;;;;5027834;28;20505;-70
2023/02/25 11:17:14;;;;;;;1999.90;999.90;;;7.70;99.90;;;;;;5029281;28;20463;-70
2023/02/25 11:19:45;;;;;;;1999.90;999.90;;;7.60;99.90;;;;;;5027990;28;20480;-69
2023/02/25 11:22:18;;;;;;;1999.90;999.90;;;7.60;99.90;;;;;;5028232;28;20465;-71
2023/02/25 11:24:56;;;;;;;1999.90;999.90;;;7.30;99.90;;;;;;5028786;28;20461;-68
2023/02/25 11:27:30;;;;;;;1999.90;999.90;;;6.90;99.90;;;;;;5029126;28;20998;-68
2023/02/25 11:30:06;;;;;;;1999.90;999.90;;;6.80;99.90;;;;;;5026587;28;20453;-71
2023/02/25 11:32:34;;;;;;;1999.90;999.90;;;7.00;99.90;;;;;;5026813;28;20483;-68
2023/02/25 11:35:08;;;;;;;1999.90;999.90;;;7.00;99.90;;;;;;5028433;28;20460;-67
2023/02/25 11:37:38;;;;;;;1999.90;999.90;;;6.90;99.90;;;;;;5028758;28;20539;-68
2023/02/25 11:40:22;;;;;;;1999.90;999.90;;;6.70;99.90;;;;;;5028787;28;20986;-67
2023/02/25 11:43:15;;;;;;;1999.90;999.90;;;6.70;99.90;;;;;;5026938;28;20556;-67
2023/02/25 11:45:53;;;;;;;1999.90;999.90;;;6.60;99.90;;;;;;5028413;28;20978;-68
2023/02/25 11:48:24;;;;;;;1999.90;999.90;;;6.70;99.90;;;;;;5026315;28;20441;-67
2023/02/25 11:51:04;;;;;;;1999.90;999.90;;;6.90;99.90;;;;;;5024963;28;20827;-65
2023/02/25 11:53:44;;;;;;;1999.90;999.90;;;7.20;99.90;;;;;;5023247;28;20468;-68
2023/02/25 11:56:18;;;;;;;1999.90;999.90;;;7.30;99.90;;;;;;5025269;28;20437;-68
2023/02/25 11:58:52;;;;;;;1999.90;999.90;;;7.50;99.90;;;;;;5027163;28;20543;-67
2023/02/25 12:01:30;;;;;;;1999.90;999.90;;;7.40;99.90;;;;;;5025783;28;20489;-68
2023/02/25 12:04:21;;;;;;;1999.90;999.90;;;7.30;99.90;;;;;;5027348;28;20468;-70
2023/02/25 12:07:06;;;;;;;1999.90;999.90;;;7.30;99.90;;;;;;5028057;28;20528;-71
2023/02/25 12:09:53;;;;;;;1999.90;999.90;;;7.10;99.90;;;;;;5027527;28;20973;-69
2023/02/25 12:12:54;;;;;;;1999.90;999.90;;;6.80;99.90;;;;;;5027635;28;20469;-72
2023/02/25 12:16:00;;;;;;;1999.90;999.90;;;6.80;99.90;;;;;;5028446;28;21159;-71
2023/02/25 12:18:49;;;;;;;1999.90;999.90;;;6.60;99.90;;;;;;5020496;28;20452;-70
2023/02/25 12:21:55;;;;;;;1999.90;999.90;;;6.50;99.90;;;;;;5030860;28;20484;-71
2023/02/25 12:24:52;;;;;;;1999.90;999.90;;;6.30;99.90;;;;;;5029961;28;20447;-71